»·PEaware :: AAL683 KJFK-KEWR

AAL683 :: KJFK-KEWR

FLIGHT INFORMATION

Flight Status: Arrived
Operator:
American Airlines
More flights by this operator :: More flights under this callsign
Pilot: Mike B. (36914)
Aircraft: MCDONNELL-DOUGLAS MD-82
(MD82)
More flights by this aircraft type
Origin: KJFK Kennedy Intl
United States
Destination: KEWR Newark Intl
United States
More flights between these airports :: More routes between these airports
Route: JFK V16 DIXIE V276 RBV V249 SBJ
File this flight plan on PilotEdge
Remarks: Twitch.tv / moosestaffa - not currently streaming
Altitude:
(Current/Filed)
6,000ft
Speed:
(Current/Filed)
265kts
Departed: 01-Dec-22 05:27 AM
Arrived: 01-Dec-22 06:17 AM
Distance/Time
Traveled:
18nm/0:50
Distance/Time
To Go:
Arrived

Flight Plot

Page will automatically refresh every two minutes.

Flight plan parsing failed; only flown route is shown


Map Options




Map Legend


Flown Route
Filed Route
Departure Airport
Arrival Airport
Navaid (VOR, NDB)
Fix

Horizontal Profiles

Position Reports

Time Latitude Longitude Heading Altitude Ground
Speed
01-Dec-22 04:59 40.641800 -73.793317 107 21ft 0kts
01-Dec-22 05:00 40.641800 -73.793317 107 21ft 0kts
01-Dec-22 05:01 40.641800 -73.793317 107 21ft 0kts
01-Dec-22 05:02 40.641800 -73.793317 107 21ft 0kts
01-Dec-22 05:03 40.641800 -73.793317 107 21ft 0kts
01-Dec-22 05:03 40.641800 -73.793317 107 21ft 0kts
01-Dec-22 05:05 40.641800 -73.793317 107 21ft 0kts
01-Dec-22 05:06 40.641800 -73.793317 107 21ft 0kts
01-Dec-22 05:07 40.641800 -73.793317 107 21ft 0kts
01-Dec-22 05:08 40.641800 -73.793317 107 21ft 0kts
01-Dec-22 05:09 40.641800 -73.793317 107 21ft 0kts
01-Dec-22 05:09 40.641800 -73.793317 107 21ft 0kts
01-Dec-22 05:10 40.641800 -73.793317 107 21ft 0kts
01-Dec-22 05:12 40.641800 -73.793317 107 21ft 0kts
01-Dec-22 05:13 40.641800 -73.793317 107 -15ft 0kts
01-Dec-22 05:14 40.641800 -73.793317 107 -15ft 0kts
01-Dec-22 05:14 40.641800 -73.793317 107 -15ft 0kts
01-Dec-22 05:15 40.641809 -73.793347 108 -15ft 1kts
01-Dec-22 05:16 40.642234 -73.793997 136 23ft 2kts
01-Dec-22 05:17 40.642359 -73.794135 147 23ft 0kts
01-Dec-22 05:19 40.642359 -73.794135 147 23ft 0kts
01-Dec-22 05:19 40.642068 -73.794526 255 21ft 10kts
01-Dec-22 05:20 40.643438 -73.799878 301 21ft 22kts
01-Dec-22 05:21 40.647227 -73.808185 300 21ft 30kts
01-Dec-22 05:22 40.649831 -73.815355 215 21ft 12kts
01-Dec-22 05:23 40.649175 -73.815871 210 21ft 0kts
01-Dec-22 05:24 40.648072 -73.816075 125 23ft 13kts
01-Dec-22 05:25 40.647652 -73.815170 121 23ft 22kts
01-Dec-22 05:26 40.626661 -73.772177 153 1515ft 179kts
01-Dec-22 05:27 40.572080 -73.745760 167 3681ft 269kts
01-Dec-22 05:28 40.508099 -73.689118 128 4947ft 293kts
01-Dec-22 05:29 40.444437 -73.648955 220 5056ft 264kts
01-Dec-22 05:30 40.398446 -73.718636 246 5027ft 251kts
01-Dec-22 05:31 40.364467 -73.798894 247 5025ft 251kts
01-Dec-22 05:32 40.331031 -73.879321 247 5311ft 256kts
01-Dec-22 05:33 40.295961 -73.961654 239 6025ft 259kts
01-Dec-22 05:34 40.248717 -74.033485 234 6064ft 261kts
01-Dec-22 05:35 40.197638 -74.101377 218 6080ft 270kts
01-Dec-22 05:36 40.130431 -74.147245 218 6049ft 270kts
01-Dec-22 05:37 40.141071 -74.219401 324 5161ft 244kts
01-Dec-22 05:38 40.199541 -74.267147 327 5072ft 250kts
01-Dec-22 05:39 40.257149 -74.310714 327 4165ft 205kts
01-Dec-22 05:40 40.314263 -74.314145 357 3636ft 204kts
01-Dec-22 05:41 40.367709 -74.306724 357 3062ft 173kts
01-Dec-22 05:42 40.414450 -74.298265 358 3049ft 169kts
01-Dec-22 05:43 40.461036 -74.289988 358 3039ft 169kts
01-Dec-22 05:44 40.507877 -74.281315 8 3064ft 174kts
01-Dec-22 05:45 40.552680 -74.253099 15 2987ft 181kts
01-Dec-22 05:46 40.598235 -74.224449 17 1925ft 181kts
01-Dec-22 05:47 40.639939 -74.198032 18 904ft 145kts
01-Dec-22 05:48 40.677093 -74.174634 22 335ft 164kts
01-Dec-22 05:49 40.715257 -74.146407 52 2384ft 167kts
01-Dec-22 05:50 40.749738 -74.112369 319 2824ft 180kts
01-Dec-22 05:51 40.761216 -74.169564 256 2935ft 176kts
01-Dec-22 05:52 40.745054 -74.233268 256 3129ft 182kts
01-Dec-22 05:53 40.703330 -74.276195 207 3033ft 227kts
01-Dec-22 05:54 40.645375 -74.303644 207 3053ft 216kts
01-Dec-22 05:55 40.589021 -74.328859 206 3066ft 214kts
01-Dec-22 05:56 40.532464 -74.353729 205 3033ft 213kts
01-Dec-22 05:57 40.491907 -74.300593 92 3080ft 243kts
01-Dec-22 05:58 40.533015 -74.268267 22 3121ft 199kts
01-Dec-22 05:59 40.578224 -74.236871 16 2387ft 181kts
01-Dec-22 06:00 40.620549 -74.210194 16 1396ft 148kts
01-Dec-22 06:01 40.657244 -74.187182 20 603ft 147kts
01-Dec-22 06:02 40.694740 -74.163068 16 1702ft 155kts
01-Dec-22 06:03 40.734939 -74.126529 351 2937ft 190kts
01-Dec-22 06:04 40.785715 -74.141690 285 3014ft 194kts
01-Dec-22 06:05 40.773475 -74.213076 257 3038ft 201kts
01-Dec-22 06:06 40.756420 -74.283415 256 3022ft 200kts
01-Dec-22 06:07 40.706299 -74.322731 208 3060ft 224kts
01-Dec-22 06:08 40.647695 -74.350309 206 3069ft 224kts
01-Dec-22 06:09 40.588936 -74.377338 207 3039ft 223kts
01-Dec-22 06:10 40.531831 -74.356652 139 3089ft 238kts
01-Dec-22 06:11 40.524147 -74.290695 59 3069ft 192kts
01-Dec-22 06:12 40.558641 -74.249381 15 2849ft 172kts
01-Dec-22 06:13 40.601727 -74.222495 17 1779ft 174kts
01-Dec-22 06:14 40.640983 -74.197422 17 913ft 140kts
01-Dec-22 06:15 40.677342 -74.174367 18 126ft 148kts
01-Dec-22 06:16 40.697387 -74.163045 355 18ft 24kts
01-Dec-22 06:17 40.699049 -74.165532 277 15ft 0kts
01-Dec-22 06:18 40.697292 -74.168342 205 19ft 18kts
01-Dec-22 06:19 40.694720 -74.171830 222 18ft 6kts
01-Dec-22 06:20 40.694474 -74.172205 232 18ft 0kts
01-Dec-22 06:21 40.694474 -74.172205 232 18ft 0kts
01-Dec-22 06:22 40.694474 -74.172205 232 18ft 0kts

Navigation Log

Ident Type
Flight plan parsing failed, navigation log unavailable